sensor_id;sensor_type;location;lat;lon;timestamp;P1;durP1;ratioP1;P2;durP2;ratioP2
79687;SDS011;69155;49.464;2.108;2023-08-24T22:11:15;10.82;;;9.48;;
79687;SDS011;69155;49.464;2.108;2023-08-24T22:13:41;9.80;;;8.07;;
79687;SDS011;69155;49.464;2.108;2023-08-24T22:16:15;9.43;;;8.38;;
79687;SDS011;69155;49.464;2.108;2023-08-24T22:18:41;12.05;;;8.73;;
79687;SDS011;69155;49.464;2.108;2023-08-24T22:21:10;11.25;;;7.85;;
79687;SDS011;69155;49.464;2.108;2023-08-24T22:23:36;13.88;;;8.52;;
79687;SDS011;69155;49.464;2.108;2023-08-24T22:26:01;11.70;;;10.50;;
79687;SDS011;69155;49.464;2.108;2023-08-24T22:28:27;15.68;;;11.48;;
79687;SDS011;69155;49.464;2.108;2023-08-24T22:30:52;13.20;;;11.37;;
79687;SDS011;69155;49.464;2.108;2023-08-24T22:33:22;14.90;;;13.05;;
79687;SDS011;69155;49.464;2.108;2023-08-24T22:35:48;14.98;;;11.73;;
79687;SDS011;69155;49.464;2.108;2023-08-24T22:38:16;12.77;;;10.02;;
79687;SDS011;69155;49.464;2.108;2023-08-24T22:40:41;14.43;;;9.73;;
79687;SDS011;69155;49.464;2.108;2023-08-24T22:43:07;12.70;;;8.93;;
79687;SDS011;69155;49.464;2.108;2023-08-24T22:45:35;12.77;;;8.67;;
79687;SDS011;69155;49.464;2.108;2023-08-24T22:48:08;11.05;;;8.90;;
79687;SDS011;69155;49.464;2.108;2023-08-24T22:50:35;9.75;;;7.65;;
79687;SDS011;69155;49.464;2.108;2023-08-24T22:53:00;11.85;;;8.75;;
79687;SDS011;69155;49.464;2.108;2023-08-24T22:55:28;16.90;;;7.60;;
79687;SDS011;69155;49.464;2.108;2023-08-24T22:57:53;15.68;;;8.30;;
79687;SDS011;69155;49.464;2.108;2023-08-24T23:00:18;10.90;;;8.13;;
79687;SDS011;69155;49.464;2.108;2023-08-24T23:02:43;11.60;;;8.97;;
79687;SDS011;69155;49.464;2.108;2023-08-24T23:05:09;11.10;;;8.67;;
79687;SDS011;69155;49.464;2.108;2023-08-24T23:07:34;15.20;;;9.93;;
79687;SDS011;69155;49.464;2.108;2023-08-24T23:10:05;14.40;;;10.35;;
79687;SDS011;69155;49.464;2.108;2023-08-24T23:12:33;11.27;;;9.05;;
79687;SDS011;69155;49.464;2.108;2023-08-24T23:14:59;12.40;;;8.50;;
79687;SDS011;69155;49.464;2.108;2023-08-24T23:17:24;12.33;;;8.53;;
79687;SDS011;69155;49.464;2.108;2023-08-24T23:19:53;11.35;;;8.98;;
79687;SDS011;69155;49.464;2.108;2023-08-24T23:22:18;16.80;;;8.65;;
79687;SDS011;69155;49.464;2.108;2023-08-24T23:24:43;11.90;;;8.73;;
79687;SDS011;69155;49.464;2.108;2023-08-24T23:27:08;17.73;;;8.47;;
79687;SDS011;69155;49.464;2.108;2023-08-24T23:29:33;10.47;;;8.37;;
79687;SDS011;69155;49.464;2.108;2023-08-24T23:31:59;15.87;;;8.93;;
79687;SDS011;69155;49.464;2.108;2023-08-24T23:34:24;10.65;;;8.98;;
79687;SDS011;69155;49.464;2.108;2023-08-24T23:36:49;15.17;;;8.67;;
79687;SDS011;69155;49.464;2.108;2023-08-24T23:39:17;8.98;;;8.00;;
79687;SDS011;69155;49.464;2.108;2023-08-24T23:41:43;11.82;;;8.20;;
79687;SDS011;69155;49.464;2.108;2023-08-24T23:44:08;14.33;;;8.47;;
79687;SDS011;69155;49.464;2.108;2023-08-24T23:46:33;10.07;;;7.93;;
79687;SDS011;69155;49.464;2.108;2023-08-24T23:48:58;11.90;;;9.40;;
79687;SDS011;69155;49.464;2.108;2023-08-24T23:51:24;13.67;;;9.00;;
79687;SDS011;69155;49.464;2.108;2023-08-24T23:53:49;14.57;;;9.73;;
79687;SDS011;69155;49.464;2.108;2023-08-24T23:56:17;11.65;;;9.25;;
79687;SDS011;69155;49.464;2.108;2023-08-24T23:58:48;12.95;;;9.93;;
